KTEB

Teterboro Airport

Teterboro, New Jersey, USA
METAR KTEB 220451Z 07006KT 10SM CLR 24/16 A2985 RMK AO2 SLP108 T02390161 403060194
Observed Flight Rules
Jun-22 @ 04:51 UTC (54 minutes ago) Visual Flight Rules
Wind Visibility Clouds
70° at 6 knots 10 miles
  • Clear skies
Temperatures Readings
Current 24°C / 75°F
Dewpoint 16°C / 61°F
Humidity 61%
Altimeter 29.85" Hg
Pressure 1010.8 hPa
Elevation 7
METAR KTEB 220451Z 07006KT 10SM CLR 24/16 A2985 RMK AO2 SLP108 T02390161 403060194
Observed Flight Rules
Jun-22 @ 04:51 UTC
(54 minutes ago)
VFR
Wind Visibility
70° at 6 knots 10 miles
Clouds
  • Clear skies
Temperature Dewpoint
24°C / 75°F 16°C / 61°F
Humidity Altimeter Pressure
61% 29.85" Hg 1010.8 hPa